sensor_id;sensor_type;location;lat;lon;timestamp;temperature;humidity
35111;DHT22;21290;50.158;8.658;2022-08-07T00:00:29;16.60;71.50
35111;DHT22;21290;50.158;8.658;2022-08-07T00:02:56;16.60;71.50
35111;DHT22;21290;50.158;8.658;2022-08-07T00:05:23;16.60;72.40
35111;DHT22;21290;50.158;8.658;2022-08-07T00:07:50;16.60;72.20
35111;DHT22;21290;50.158;8.658;2022-08-07T00:10:26;16.70;72.20
35111;DHT22;21290;50.158;8.658;2022-08-07T00:12:57;16.70;73.20
35111;DHT22;21290;50.158;8.658;2022-08-07T00:15:30;16.60;71.20
35111;DHT22;21290;50.158;8.658;2022-08-07T00:18:04;16.60;72.70
35111;DHT22;21290;50.158;8.658;2022-08-07T00:20:31;16.50;72.50
35111;DHT22;21290;50.158;8.658;2022-08-07T00:23:01;16.50;72.90
35111;DHT22;21290;50.158;8.658;2022-08-07T00:25:28;16.50;72.80
35111;DHT22;21290;50.158;8.658;2022-08-07T00:28:07;16.40;73.20
35111;DHT22;21290;50.158;8.658;2022-08-07T00:30:36;16.50;73.00
35111;DHT22;21290;50.158;8.658;2022-08-07T00:33:02;16.40;73.80
35111;DHT22;21290;50.158;8.658;2022-08-07T00:35:33;16.30;73.50
35111;DHT22;21290;50.158;8.658;2022-08-07T00:38:02;16.30;74.70
35111;DHT22;21290;50.158;8.658;2022-08-07T00:40:29;16.20;75.10
35111;DHT22;21290;50.158;8.658;2022-08-07T00:43:04;16.30;75.00
35111;DHT22;21290;50.158;8.658;2022-08-07T00:45:39;16.30;74.80
35111;DHT22;21290;50.158;8.658;2022-08-07T00:48:07;16.30;75.50
35111;DHT22;21290;50.158;8.658;2022-08-07T00:50:39;16.30;75.50
35111;DHT22;21290;50.158;8.658;2022-08-07T00:53:18;16.30;75.20
35111;DHT22;21290;50.158;8.658;2022-08-07T00:55:46;16.20;74.60
35111;DHT22;21290;50.158;8.658;2022-08-07T00:58:30;16.30;74.60
35111;DHT22;21290;50.158;8.658;2022-08-07T01:00:58;16.20;75.40
35111;DHT22;21290;50.158;8.658;2022-08-07T01:03:25;16.30;75.60
35111;DHT22;21290;50.158;8.658;2022-08-07T01:06:12;16.30;75.00
35111;DHT22;21290;50.158;8.658;2022-08-07T01:08:41;16.20;74.70
35111;DHT22;21290;50.158;8.658;2022-08-07T01:11:19;16.30;74.90
35111;DHT22;21290;50.158;8.658;2022-08-07T01:14:07;16.30;74.30
35111;DHT22;21290;50.158;8.658;2022-08-07T01:16:35;16.30;74.40
35111;DHT22;21290;50.158;8.658;2022-08-07T01:19:03;16.30;75.00
35111;DHT22;21290;50.158;8.658;2022-08-07T01:21:40;16.30;74.90
35111;DHT22;21290;50.158;8.658;2022-08-07T01:24:08;16.30;75.40
35111;DHT22;21290;50.158;8.658;2022-08-07T01:26:35;16.30;75.10
35111;DHT22;21290;50.158;8.658;2022-08-07T01:29:03;16.20;75.30
35111;DHT22;21290;50.158;8.658;2022-08-07T01:31:30;16.20;75.50
35111;DHT22;21290;50.158;8.658;2022-08-07T01:34:13;16.20;75.60
35111;DHT22;21290;50.158;8.658;2022-08-07T01:36:40;16.20;76.40
35111;DHT22;21290;50.158;8.658;2022-08-07T01:39:09;16.20;76.20
35111;DHT22;21290;50.158;8.658;2022-08-07T01:41:37;16.30;76.80
35111;DHT22;21290;50.158;8.658;2022-08-07T01:44:25;16.30;76.40
35111;DHT22;21290;50.158;8.658;2022-08-07T01:46:52;16.30;76.10
35111;DHT22;21290;50.158;8.658;2022-08-07T01:49:18;16.20;76.60
35111;DHT22;21290;50.158;8.658;2022-08-07T01:51:47;16.10;76.90
35111;DHT22;21290;50.158;8.658;2022-08-07T01:54:34;16.10;77.50
35111;DHT22;21290;50.158;8.658;2022-08-07T01:57:14;16.10;77.60
35111;DHT22;21290;50.158;8.658;2022-08-07T02:02:45;16.10;78.00
35111;DHT22;21290;50.158;8.658;2022-08-07T02:05:36;16.00;78.80
35111;DHT22;21290;50.158;8.658;2022-08-07T02:08:22;16.00;79.10
35111;DHT22;21290;50.158;8.658;2022-08-07T02:10:51;16.00;79.30
35111;DHT22;21290;50.158;8.658;2022-08-07T02:13:26;16.00;78.80
35111;DHT22;21290;50.158;8.658;2022-08-07T02:16:13;16.00;79.00
35111;DHT22;21290;50.158;8.658;2022-08-07T02:18:46;16.00;79.20
35111;DHT22;21290;50.158;8.658;2022-08-07T02:21:18;16.00;79.40
35111;DHT22;21290;50.158;8.658;2022-08-07T02:23:45;16.00;79.50
35111;DHT22;21290;50.158;8.658;2022-08-07T02:26:15;15.90;80.00
35111;DHT22;21290;50.158;8.658;2022-08-07T02:29:01;15.90;80.40
35111;DHT22;21290;50.158;8.658;2022-08-07T02:31:29;15.80;80.80
35111;DHT22;21290;50.158;8.658;2022-08-07T02:33:59;15.80;80.90
35111;DHT22;21290;50.158;8.658;2022-08-07T02:36:37;15.80;80.50
35111;DHT22;21290;50.158;8.658;2022-08-07T02:39:07;15.70;82.30
35111;DHT22;21290;50.158;8.658;2022-08-07T02:41:45;15.70;82.20
35111;DHT22;21290;50.158;8.658;2022-08-07T02:44:20;15.70;82.10
35111;DHT22;21290;50.158;8.658;2022-08-07T02:46:53;15.60;82.60
35111;DHT22;21290;50.158;8.658;2022-08-07T02:49:22;15.60;83.10
35111;DHT22;21290;50.158;8.658;2022-08-07T02:52:14;15.50;83.40
35111;DHT22;21290;50.158;8.658;2022-08-07T02:54:47;15.40;84.00
35111;DHT22;21290;50.158;8.658;2022-08-07T02:57:18;15.20;84.80
35111;DHT22;21290;50.158;8.658;2022-08-07T02:59:57;15.10;86.20
35111;DHT22;21290;50.158;8.658;2022-08-07T03:02:30;15.20;86.50
35111;DHT22;21290;50.158;8.658;2022-08-07T03:04:59;15.20;86.80
35111;DHT22;21290;50.158;8.658;2022-08-07T03:07:32;15.30;86.30
35111;DHT22;21290;50.158;8.658;2022-08-07T03:10:20;15.20;87.30
35111;DHT22;21290;50.158;8.658;2022-08-07T03:12:49;15.20;87.30
35111;DHT22;21290;50.158;8.658;2022-08-07T03:15:17;15.20;88.10
35111;DHT22;21290;50.158;8.658;2022-08-07T03:18:05;15.30;88.40
35111;DHT22;21290;50.158;8.658;2022-08-07T03:20:31;15.20;87.80
35111;DHT22;21290;50.158;8.658;2022-08-07T03:23:00;15.20;88.30
35111;DHT22;21290;50.158;8.658;2022-08-07T03:25:32;15.20;87.70
35111;DHT22;21290;50.158;8.658;2022-08-07T03:28:10;15.10;89.50
35111;DHT22;21290;50.158;8.658;2022-08-07T03:30:58;15.10;89.50
35111;DHT22;21290;50.158;8.658;2022-08-07T03:33:47;15.10;89.50
35111;DHT22;21290;50.158;8.658;2022-08-07T03:36:19;15.00;90.00
35111;DHT22;21290;50.158;8.658;2022-08-07T03:38:54;15.00;90.30
35111;DHT22;21290;50.158;8.658;2022-08-07T03:41:31;14.90;90.60
35111;DHT22;21290;50.158;8.658;2022-08-07T03:44:13;15.00;90.70
35111;DHT22;21290;50.158;8.658;2022-08-07T03:46:41;15.00;90.80
35111;DHT22;21290;50.158;8.658;2022-08-07T03:49:28;15.00;90.80
35111;DHT22;21290;50.158;8.658;2022-08-07T03:51:57;15.10;91.00
35111;DHT22;21290;50.158;8.658;2022-08-07T03:54:27;15.00;91.10
35111;DHT22;21290;50.158;8.658;2022-08-07T03:57:03;15.10;91.10
35111;DHT22;21290;50.158;8.658;2022-08-07T03:59:33;15.10;91.00
35111;DHT22;21290;50.158;8.658;2022-08-07T04:02:00;15.10;91.10
35111;DHT22;21290;50.158;8.658;2022-08-07T04:04:27;15.00;91.50
35111;DHT22;21290;50.158;8.658;2022-08-07T04:06:58;15.10;91.70
35111;DHT22;21290;50.158;8.658;2022-08-07T04:09:27;15.00;91.50
35111;DHT22;21290;50.158;8.658;2022-08-07T04:12:11;15.00;92.00
35111;DHT22;21290;50.158;8.658;2022-08-07T04:14:55;14.90;92.40
35111;DHT22;21290;50.158;8.658;2022-08-07T04:17:25;14.90;92.60
35111;DHT22;21290;50.158;8.658;2022-08-07T04:20:11;15.00;92.20
35111;DHT22;21290;50.158;8.658;2022-08-07T04:22:39;15.00;92.60
35111;DHT22;21290;50.158;8.658;2022-08-07T04:25:21;15.10;92.70
35111;DHT22;21290;50.158;8.658;2022-08-07T04:27:49;15.10;92.20
35111;DHT22;21290;50.158;8.658;2022-08-07T04:30:26;15.10;92.80
35111;DHT22;21290;50.158;8.658;2022-08-07T04:33:10;15.10;92.50
35111;DHT22;21290;50.158;8.658;2022-08-07T04:35:43;15.00;92.90
35111;DHT22;21290;50.158;8.658;2022-08-07T04:38:17;15.00;93.10
35111;DHT22;21290;50.158;8.658;2022-08-07T04:40:45;15.00;93.20
35111;DHT22;21290;50.158;8.658;2022-08-07T04:43:27;15.00;93.50
35111;DHT22;21290;50.158;8.658;2022-08-07T04:48:59;15.20;93.40
35111;DHT22;21290;50.158;8.658;2022-08-07T04:51:57;15.20;93.60
35111;DHT22;21290;50.158;8.658;2022-08-07T04:57:59;15.30;93.60
35111;DHT22;21290;50.158;8.658;2022-08-07T05:01:06;15.30;93.20
35111;DHT22;21290;50.158;8.658;2022-08-07T05:04:07;15.30;93.60
35111;DHT22;21290;50.158;8.658;2022-08-07T05:06:57;15.30;93.60
35111;DHT22;21290;50.158;8.658;2022-08-07T05:09:56;15.30;93.70
35111;DHT22;21290;50.158;8.658;2022-08-07T05:12:30;15.40;93.90
35111;DHT22;21290;50.158;8.658;2022-08-07T05:15:15;15.50;93.70
35111;DHT22;21290;50.158;8.658;2022-08-07T05:17:54;15.50;93.50
35111;DHT22;21290;50.158;8.658;2022-08-07T05:20:30;15.50;93.50
35111;DHT22;21290;50.158;8.658;2022-08-07T05:23:00;15.60;93.40
35111;DHT22;21290;50.158;8.658;2022-08-07T05:25:30;15.60;93.70
35111;DHT22;21290;50.158;8.658;2022-08-07T05:28:18;15.60;93.40
35111;DHT22;21290;50.158;8.658;2022-08-07T05:30:50;15.70;93.70
35111;DHT22;21290;50.158;8.658;2022-08-07T05:33:18;15.70;93.40
35111;DHT22;21290;50.158;8.658;2022-08-07T05:35:48;15.70;93.30
35111;DHT22;21290;50.158;8.658;2022-08-07T05:38:18;15.70;93.80
35111;DHT22;21290;50.158;8.658;2022-08-07T05:41:08;15.80;93.70
35111;DHT22;21290;50.158;8.658;2022-08-07T05:43:46;15.90;93.40
35111;DHT22;21290;50.158;8.658;2022-08-07T05:46:35;16.10;93.00
35111;DHT22;21290;50.158;8.658;2022-08-07T05:49:05;16.20;92.90
35111;DHT22;21290;50.158;8.658;2022-08-07T05:51:39;16.30;92.40
35111;DHT22;21290;50.158;8.658;2022-08-07T05:54:08;16.30;92.30
35111;DHT22;21290;50.158;8.658;2022-08-07T05:56:56;16.40;92.30
35111;DHT22;21290;50.158;8.658;2022-08-07T05:59:24;16.50;92.10
35111;DHT22;21290;50.158;8.658;2022-08-07T06:01:53;16.60;92.00
35111;DHT22;21290;50.158;8.658;2022-08-07T06:04:23;16.70;91.60
35111;DHT22;21290;50.158;8.658;2022-08-07T06:06:56;16.80;91.60
35111;DHT22;21290;50.158;8.658;2022-08-07T06:09:30;16.90;90.90
35111;DHT22;21290;50.158;8.658;2022-08-07T06:12:17;17.00;91.30
35111;DHT22;21290;50.158;8.658;2022-08-07T06:14:53;17.20;90.80
35111;DHT22;21290;50.158;8.658;2022-08-07T06:17:30;17.30;90.20
35111;DHT22;21290;50.158;8.658;2022-08-07T06:20:04;17.40;90.20
35111;DHT22;21290;50.158;8.658;2022-08-07T06:22:39;17.60;89.50
35111;DHT22;21290;50.158;8.658;2022-08-07T06:25:27;17.70;90.00
35111;DHT22;21290;50.158;8.658;2022-08-07T06:28:04;17.80;88.60
35111;DHT22;21290;50.158;8.658;2022-08-07T06:30:32;18.00;88.20
35111;DHT22;21290;50.158;8.658;2022-08-07T06:33:07;18.10;88.80
35111;DHT22;21290;50.158;8.658;2022-08-07T06:35:41;18.30;87.20
35111;DHT22;21290;50.158;8.658;2022-08-07T06:38:28;18.50;86.50
35111;DHT22;21290;50.158;8.658;2022-08-07T06:40:58;18.70;85.50
35111;DHT22;21290;50.158;8.658;2022-08-07T06:43:25;18.90;85.20
35111;DHT22;21290;50.158;8.658;2022-08-07T06:46:05;19.00;84.20
35111;DHT22;21290;50.158;8.658;2022-08-07T06:48:38;19.20;83.60
35111;DHT22;21290;50.158;8.658;2022-08-07T06:51:09;19.40;83.00
35111;DHT22;21290;50.158;8.658;2022-08-07T06:53:41;19.60;82.30
35111;DHT22;21290;50.158;8.658;2022-08-07T06:56:29;19.70;80.70
35111;DHT22;21290;50.158;8.658;2022-08-07T06:59:25;19.80;81.10
35111;DHT22;21290;50.158;8.658;2022-08-07T07:02:17;20.00;80.10
35111;DHT22;21290;50.158;8.658;2022-08-07T07:05:05;20.20;79.50
35111;DHT22;21290;50.158;8.658;2022-08-07T07:07:32;20.40;79.10
35111;DHT22;21290;50.158;8.658;2022-08-07T07:10:29;20.60;78.40
35111;DHT22;21290;50.158;8.658;2022-08-07T07:13:03;20.70;77.00
35111;DHT22;21290;50.158;8.658;2022-08-07T07:15:40;20.90;75.70
35111;DHT22;21290;50.158;8.658;2022-08-07T07:18:27;21.10;76.40
35111;DHT22;21290;50.158;8.658;2022-08-07T07:21:19;21.30;75.10
35111;DHT22;21290;50.158;8.658;2022-08-07T07:23:53;21.50;74.80
35111;DHT22;21290;50.158;8.658;2022-08-07T07:26:36;21.70;74.10
35111;DHT22;21290;50.158;8.658;2022-08-07T07:29:10;21.80;72.90
35111;DHT22;21290;50.158;8.658;2022-08-07T07:32:01;22.00;72.70
35111;DHT22;21290;50.158;8.658;2022-08-07T07:34:29;22.30;72.10
35111;DHT22;21290;50.158;8.658;2022-08-07T07:37:02;22.50;71.20
35111;DHT22;21290;50.158;8.658;2022-08-07T07:39:47;22.60;70.80
35111;DHT22;21290;50.158;8.658;2022-08-07T07:42:22;22.70;69.80
35111;DHT22;21290;50.158;8.658;2022-08-07T07:45:03;22.90;69.50
35111;DHT22;21290;50.158;8.658;2022-08-07T07:47:33;22.90;68.20
35111;DHT22;21290;50.158;8.658;2022-08-07T07:50:21;23.00;68.40
35111;DHT22;21290;50.158;8.658;2022-08-07T07:53:08;23.30;68.70
35111;DHT22;21290;50.158;8.658;2022-08-07T07:55:51;23.50;67.30
35111;DHT22;21290;50.158;8.658;2022-08-07T07:58:28;23.70;67.10
35111;DHT22;21290;50.158;8.658;2022-08-07T08:01:10;24.00;67.10
35111;DHT22;21290;50.158;8.658;2022-08-07T08:03:58;24.20;65.90
35111;DHT22;21290;50.158;8.658;2022-08-07T08:06:38;24.50;65.10
35111;DHT22;21290;50.158;8.658;2022-08-07T08:09:19;24.90;64.20
35111;DHT22;21290;50.158;8.658;2022-08-07T08:11:52;24.80;63.20
35111;DHT22;21290;50.158;8.658;2022-08-07T08:14:33;25.00;61.90
35111;DHT22;21290;50.158;8.658;2022-08-07T08:17:04;25.40;63.00
35111;DHT22;21290;50.158;8.658;2022-08-07T08:19:55;25.70;62.20
35111;DHT22;21290;50.158;8.658;2022-08-07T08:22:43;26.40;61.10
35111;DHT22;21290;50.158;8.658;2022-08-07T08:25:35;26.80;60.60
35111;DHT22;21290;50.158;8.658;2022-08-07T08:28:25;27.40;59.40
35111;DHT22;21290;50.158;8.658;2022-08-07T08:31:07;27.80;58.80
35111;DHT22;21290;50.158;8.658;2022-08-07T08:33:42;28.30;57.50
35111;DHT22;21290;50.158;8.658;2022-08-07T08:36:27;28.80;57.20
35111;DHT22;21290;50.158;8.658;2022-08-07T08:38:57;31.20;55.40
35111;DHT22;21290;50.158;8.658;2022-08-07T08:41:49;33.90;52.40
35111;DHT22;21290;50.158;8.658;2022-08-07T08:45:10;36.70;48.80
35111;DHT22;21290;50.158;8.658;2022-08-07T08:47:55;39.20;45.40
35111;DHT22;21290;50.158;8.658;2022-08-07T08:50:34;40.20;42.80
35111;DHT22;21290;50.158;8.658;2022-08-07T08:53:14;40.60;41.90
35111;DHT22;21290;50.158;8.658;2022-08-07T08:56:07;40.70;41.20
35111;DHT22;21290;50.158;8.658;2022-08-07T08:58:59;41.30;40.20
35111;DHT22;21290;50.158;8.658;2022-08-07T09:01:59;41.90;39.50
35111;DHT22;21290;50.158;8.658;2022-08-07T09:10:42;40.80;38.70
35111;DHT22;21290;50.158;8.658;2022-08-07T09:16:21;40.30;39.30
35111;DHT22;21290;50.158;8.658;2022-08-07T09:19:21;40.90;38.90
35111;DHT22;21290;50.158;8.658;2022-08-07T09:22:39;41.60;39.00
35111;DHT22;21290;50.158;8.658;2022-08-07T09:25:46;41.60;38.20
35111;DHT22;21290;50.158;8.658;2022-08-07T09:28:40;42.40;38.20
35111;DHT22;21290;50.158;8.658;2022-08-07T09:31:44;42.60;38.70
35111;DHT22;21290;50.158;8.658;2022-08-07T09:34:28;42.70;38.00
35111;DHT22;21290;50.158;8.658;2022-08-07T09:37:19;42.30;37.40
35111;DHT22;21290;50.158;8.658;2022-08-07T09:40:30;42.50;37.60
35111;DHT22;21290;50.158;8.658;2022-08-07T09:52:52;42.80;37.10
35111;DHT22;21290;50.158;8.658;2022-08-07T09:55:36;42.70;37.40
35111;DHT22;21290;50.158;8.658;2022-08-07T10:07:47;43.20;37.10
35111;DHT22;21290;50.158;8.658;2022-08-07T10:25:12;44.40;35.50
35111;DHT22;21290;50.158;8.658;2022-08-07T10:30:48;44.30;36.10
35111;DHT22;21290;50.158;8.658;2022-08-07T10:34:15;44.10;35.40
35111;DHT22;21290;50.158;8.658;2022-08-07T10:39:55;45.00;34.30
35111;DHT22;21290;50.158;8.658;2022-08-07T10:45:34;43.70;35.20
35111;DHT22;21290;50.158;8.658;2022-08-07T10:48:41;44.20;35.30
35111;DHT22;21290;50.158;8.658;2022-08-07T10:54:23;44.40;34.70
35111;DHT22;21290;50.158;8.658;2022-08-07T10:57:14;45.00;34.40
35111;DHT22;21290;50.158;8.658;2022-08-07T11:03:06;44.20;34.30
35111;DHT22;21290;50.158;8.658;2022-08-07T11:05:54;43.50;34.20
35111;DHT22;21290;50.158;8.658;2022-08-07T11:08:53;41.00;34.10
35111;DHT22;21290;50.158;8.658;2022-08-07T11:14:09;41.80;35.20
35111;DHT22;21290;50.158;8.658;2022-08-07T11:17:10;42.50;35.40
35111;DHT22;21290;50.158;8.658;2022-08-07T11:20:07;43.00;34.10
35111;DHT22;21290;50.158;8.658;2022-08-07T11:22:40;42.90;34.20
35111;DHT22;21290;50.158;8.658;2022-08-07T11:25:32;43.00;34.60
35111;DHT22;21290;50.158;8.658;2022-08-07T11:28:18;43.40;34.40
35111;DHT22;21290;50.158;8.658;2022-08-07T11:33:33;44.00;33.50
35111;DHT22;21290;50.158;8.658;2022-08-07T11:36:46;44.10;33.20
35111;DHT22;21290;50.158;8.658;2022-08-07T11:39:38;43.80;32.70
35111;DHT22;21290;50.158;8.658;2022-08-07T11:42:52;43.80;33.70
35111;DHT22;21290;50.158;8.658;2022-08-07T11:51:48;43.00;33.80
35111;DHT22;21290;50.158;8.658;2022-08-07T12:00:03;41.30;34.40
35111;DHT22;21290;50.158;8.658;2022-08-07T12:06:27;40.40;34.70
35111;DHT22;21290;50.158;8.658;2022-08-07T12:09:15;38.90;35.00
35111;DHT22;21290;50.158;8.658;2022-08-07T12:15:03;36.50;37.50
35111;DHT22;21290;50.158;8.658;2022-08-07T12:17:39;35.60;38.00
35111;DHT22;21290;50.158;8.658;2022-08-07T12:20:46;34.60;38.90
35111;DHT22;21290;50.158;8.658;2022-08-07T12:23:38;33.40;39.60
35111;DHT22;21290;50.158;8.658;2022-08-07T12:26:30;33.10;40.50
35111;DHT22;21290;50.158;8.658;2022-08-07T12:29:35;32.60;39.60
35111;DHT22;21290;50.158;8.658;2022-08-07T12:34:55;32.20;40.40
35111;DHT22;21290;50.158;8.658;2022-08-07T12:37:24;32.00;40.70
35111;DHT22;21290;50.158;8.658;2022-08-07T12:40:23;32.00;40.90
35111;DHT22;21290;50.158;8.658;2022-08-07T12:43:12;32.00;40.20
35111;DHT22;21290;50.158;8.658;2022-08-07T12:49:12;31.60;41.30
35111;DHT22;21290;50.158;8.658;2022-08-07T12:52:06;31.40;42.10
35111;DHT22;21290;50.158;8.658;2022-08-07T12:54:53;31.30;41.30
35111;DHT22;21290;50.158;8.658;2022-08-07T12:57:36;31.00;40.80
35111;DHT22;21290;50.158;8.658;2022-08-07T13:00:50;30.90;42.30
35111;DHT22;21290;50.158;8.658;2022-08-07T13:16:06;30.20;42.70
35111;DHT22;21290;50.158;8.658;2022-08-07T13:22:17;30.40;42.50
35111;DHT22;21290;50.158;8.658;2022-08-07T13:25:02;30.50;42.20
35111;DHT22;21290;50.158;8.658;2022-08-07T13:27:39;30.50;42.80
35111;DHT22;21290;50.158;8.658;2022-08-07T13:30:26;30.40;42.50
35111;DHT22;21290;50.158;8.658;2022-08-07T13:33:25;30.30;42.40
35111;DHT22;21290;50.158;8.658;2022-08-07T13:36:22;30.30;42.90
35111;DHT22;21290;50.158;8.658;2022-08-07T13:39:14;30.40;42.30
35111;DHT22;21290;50.158;8.658;2022-08-07T13:42:03;30.40;42.00
35111;DHT22;21290;50.158;8.658;2022-08-07T13:44:37;30.50;42.90
35111;DHT22;21290;50.158;8.658;2022-08-07T13:47:08;30.50;42.70
35111;DHT22;21290;50.158;8.658;2022-08-07T13:49:44;30.60;42.40
35111;DHT22;21290;50.158;8.658;2022-08-07T13:52:32;30.40;42.10
35111;DHT22;21290;50.158;8.658;2022-08-07T13:55:12;30.30;41.70
35111;DHT22;21290;50.158;8.658;2022-08-07T13:58:05;30.30;42.10
35111;DHT22;21290;50.158;8.658;2022-08-07T14:00:59;30.20;42.20
35111;DHT22;21290;50.158;8.658;2022-08-07T14:03:36;30.20;42.40
35111;DHT22;21290;50.158;8.658;2022-08-07T14:06:36;30.00;41.90
35111;DHT22;21290;50.158;8.658;2022-08-07T14:09:04;29.80;41.50
35111;DHT22;21290;50.158;8.658;2022-08-07T14:11:36;29.70;42.20
35111;DHT22;21290;50.158;8.658;2022-08-07T14:14:44;29.70;42.20
35111;DHT22;21290;50.158;8.658;2022-08-07T14:17:14;29.70;42.00
35111;DHT22;21290;50.158;8.658;2022-08-07T14:23:21;29.60;42.60
35111;DHT22;21290;50.158;8.658;2022-08-07T14:26:14;29.60;42.00
35111;DHT22;21290;50.158;8.658;2022-08-07T14:28:59;29.70;42.40
35111;DHT22;21290;50.158;8.658;2022-08-07T14:31:48;29.60;42.10
35111;DHT22;21290;50.158;8.658;2022-08-07T14:34:27;29.60;41.80
35111;DHT22;21290;50.158;8.658;2022-08-07T14:37:02;29.70;41.60
35111;DHT22;21290;50.158;8.658;2022-08-07T14:39:30;29.60;41.80
35111;DHT22;21290;50.158;8.658;2022-08-07T14:42:21;29.60;41.90
35111;DHT22;21290;50.158;8.658;2022-08-07T14:44:52;29.60;42.70
35111;DHT22;21290;50.158;8.658;2022-08-07T14:47:26;29.50;41.70
35111;DHT22;21290;50.158;8.658;2022-08-07T14:50:03;29.50;41.70
35111;DHT22;21290;50.158;8.658;2022-08-07T14:52:30;29.40;42.00
35111;DHT22;21290;50.158;8.658;2022-08-07T14:55:00;29.30;41.90
35111;DHT22;21290;50.158;8.658;2022-08-07T14:57:30;29.30;41.90
35111;DHT22;21290;50.158;8.658;2022-08-07T15:00:21;29.30;42.30
35111;DHT22;21290;50.158;8.658;2022-08-07T15:02:58;29.30;42.30
35111;DHT22;21290;50.158;8.658;2022-08-07T15:05:26;29.30;41.70
35111;DHT22;21290;50.158;8.658;2022-08-07T15:08:31;29.20;41.50
35111;DHT22;21290;50.158;8.658;2022-08-07T15:11:03;29.00;41.80
35111;DHT22;21290;50.158;8.658;2022-08-07T15:13:34;28.80;42.20
35111;DHT22;21290;50.158;8.658;2022-08-07T15:16:06;28.80;42.90
35111;DHT22;21290;50.158;8.658;2022-08-07T15:18:43;28.80;43.00
35111;DHT22;21290;50.158;8.658;2022-08-07T15:21:17;28.90;43.10
35111;DHT22;21290;50.158;8.658;2022-08-07T15:24:08;28.80;42.60
35111;DHT22;21290;50.158;8.658;2022-08-07T15:27:09;28.90;42.70
35111;DHT22;21290;50.158;8.658;2022-08-07T15:29:42;28.80;42.40
35111;DHT22;21290;50.158;8.658;2022-08-07T15:32:29;28.80;42.80
35111;DHT22;21290;50.158;8.658;2022-08-07T15:35:11;28.70;42.50
35111;DHT22;21290;50.158;8.658;2022-08-07T15:37:46;28.50;42.20
35111;DHT22;21290;50.158;8.658;2022-08-07T15:40:34;28.40;43.60
35111;DHT22;21290;50.158;8.658;2022-08-07T15:46:15;28.30;43.40
35111;DHT22;21290;50.158;8.658;2022-08-07T15:49:05;28.20;43.80
35111;DHT22;21290;50.158;8.658;2022-08-07T15:51:44;28.20;43.50
35111;DHT22;21290;50.158;8.658;2022-08-07T15:54:32;28.10;42.80
35111;DHT22;21290;50.158;8.658;2022-08-07T15:57:07;28.00;42.70
35111;DHT22;21290;50.158;8.658;2022-08-07T15:59:55;27.90;42.40
35111;DHT22;21290;50.158;8.658;2022-08-07T16:02:27;27.80;43.50
35111;DHT22;21290;50.158;8.658;2022-08-07T16:05:02;27.80;44.10
35111;DHT22;21290;50.158;8.658;2022-08-07T16:07:43;27.70;43.00
35111;DHT22;21290;50.158;8.658;2022-08-07T16:10:32;27.70;43.60
35111;DHT22;21290;50.158;8.658;2022-08-07T16:16:33;27.70;43.70
35111;DHT22;21290;50.158;8.658;2022-08-07T16:22:49;27.60;42.90
35111;DHT22;21290;50.158;8.658;2022-08-07T16:25:37;27.60;43.40
35111;DHT22;21290;50.158;8.658;2022-08-07T16:28:30;27.50;43.70
35111;DHT22;21290;50.158;8.658;2022-08-07T16:34:20;27.40;43.50
35111;DHT22;21290;50.158;8.658;2022-08-07T16:40:36;27.40;44.20
35111;DHT22;21290;50.158;8.658;2022-08-07T16:43:41;27.20;44.00
35111;DHT22;21290;50.158;8.658;2022-08-07T16:55:54;26.90;44.10
35111;DHT22;21290;50.158;8.658;2022-08-07T17:02:05;26.80;45.00
35111;DHT22;21290;50.158;8.658;2022-08-07T17:08:07;26.70;45.00
35111;DHT22;21290;50.158;8.658;2022-08-07T17:10:48;26.60;45.20
35111;DHT22;21290;50.158;8.658;2022-08-07T17:16:24;26.50;45.60
35111;DHT22;21290;50.158;8.658;2022-08-07T17:19:01;26.50;45.90
35111;DHT22;21290;50.158;8.658;2022-08-07T17:21:39;26.40;45.90
35111;DHT22;21290;50.158;8.658;2022-08-07T17:24:41;26.30;45.40
35111;DHT22;21290;50.158;8.658;2022-08-07T17:27:17;26.20;45.90
35111;DHT22;21290;50.158;8.658;2022-08-07T17:30:06;26.10;46.30
35111;DHT22;21290;50.158;8.658;2022-08-07T17:33:05;26.00;46.70
35111;DHT22;21290;50.158;8.658;2022-08-07T17:36:02;25.90;45.80
35111;DHT22;21290;50.158;8.658;2022-08-07T17:39:34;25.80;45.60
35111;DHT22;21290;50.158;8.658;2022-08-07T17:50:24;25.40;46.70
35111;DHT22;21290;50.158;8.658;2022-08-07T17:52:59;25.30;46.30
35111;DHT22;21290;50.158;8.658;2022-08-07T17:55:39;25.30;46.70
35111;DHT22;21290;50.158;8.658;2022-08-07T18:01:18;25.10;46.90
35111;DHT22;21290;50.158;8.658;2022-08-07T18:04:04;25.00;47.00
35111;DHT22;21290;50.158;8.658;2022-08-07T18:06:50;24.90;46.90
35111;DHT22;21290;50.158;8.658;2022-08-07T18:09:43;24.80;47.10
35111;DHT22;21290;50.158;8.658;2022-08-07T18:12:50;24.70;47.60
35111;DHT22;21290;50.158;8.658;2022-08-07T18:15:24;24.60;47.70
35111;DHT22;21290;50.158;8.658;2022-08-07T18:18:13;24.50;47.80
35111;DHT22;21290;50.158;8.658;2022-08-07T18:21:32;24.50;47.80
35111;DHT22;21290;50.158;8.658;2022-08-07T18:27:35;24.20;48.40
35111;DHT22;21290;50.158;8.658;2022-08-07T18:30:22;24.10;48.70
35111;DHT22;21290;50.158;8.658;2022-08-07T18:33:27;24.00;48.90
35111;DHT22;21290;50.158;8.658;2022-08-07T18:48:30;23.50;50.30
35111;DHT22;21290;50.158;8.658;2022-08-07T18:54:47;23.20;50.20
35111;DHT22;21290;50.158;8.658;2022-08-07T18:57:24;23.10;50.80
35111;DHT22;21290;50.158;8.658;2022-08-07T19:00:07;23.00;51.60
35111;DHT22;21290;50.158;8.658;2022-08-07T19:03:06;22.90;51.40
35111;DHT22;21290;50.158;8.658;2022-08-07T19:05:56;22.80;51.80
35111;DHT22;21290;50.158;8.658;2022-08-07T19:11:29;22.60;51.80
35111;DHT22;21290;50.158;8.658;2022-08-07T19:14:22;22.60;52.30
35111;DHT22;21290;50.158;8.658;2022-08-07T19:17:05;22.50;52.20
35111;DHT22;21290;50.158;8.658;2022-08-07T19:20:05;22.30;52.10
35111;DHT22;21290;50.158;8.658;2022-08-07T19:23:06;22.30;52.40
35111;DHT22;21290;50.158;8.658;2022-08-07T19:25:49;22.20;52.50
35111;DHT22;21290;50.158;8.658;2022-08-07T19:28:43;22.00;52.50
35111;DHT22;21290;50.158;8.658;2022-08-07T19:31:58;21.90;52.70
35111;DHT22;21290;50.158;8.658;2022-08-07T19:34:56;21.80;52.80
35111;DHT22;21290;50.158;8.658;2022-08-07T19:37:26;21.70;53.10
35111;DHT22;21290;50.158;8.658;2022-08-07T19:40:15;21.70;53.80
35111;DHT22;21290;50.158;8.658;2022-08-07T19:42:57;21.60;53.80
35111;DHT22;21290;50.158;8.658;2022-08-07T19:45:25;21.50;53.20
35111;DHT22;21290;50.158;8.658;2022-08-07T19:48:13;21.50;54.20
35111;DHT22;21290;50.158;8.658;2022-08-07T19:50:50;21.40;54.20
35111;DHT22;21290;50.158;8.658;2022-08-07T19:53:20;21.40;54.80
35111;DHT22;21290;50.158;8.658;2022-08-07T19:56:09;21.30;54.80
35111;DHT22;21290;50.158;8.658;2022-08-07T19:58:57;21.20;55.60
35111;DHT22;21290;50.158;8.658;2022-08-07T20:01:28;21.20;55.60
35111;DHT22;21290;50.158;8.658;2022-08-07T20:04:33;21.10;56.40